Time;durP1;ratioP1;P1;durP2;ratioP2;P2;SDS_P1;SDS_P2;PMS_P1;PMS_P2;Temp;Humidity;BMP_temperature;BMP_pressure;BME280_temperature;BME280_humidity;BME280_pressure;Samples;Min_cycle;Max_cycle;Signal;HPM_P1;HPM_P2
2022/10/05 00:01:21;;;;;;;0.70;0.70;;;6.60;99.90;;;;;;5072045;28;20697;-72
2022/10/05 00:03:47;;;;;;;0.60;0.60;;;6.60;99.90;;;;;;5059180;28;20522;-72
2022/10/05 00:06:13;;;;;;;0.70;0.70;;;6.60;99.90;;;;;;5073694;28;20178;-72
2022/10/05 00:08:38;;;;;;;0.70;0.70;;;6.60;99.90;;;;;;5072987;28;20201;-72
2022/10/05 00:11:08;;;;;;;0.67;0.67;;;6.60;99.90;;;;;;5072377;28;20287;-72
2022/10/05 00:13:34;;;;;;;0.60;0.60;;;6.70;99.90;;;;;;5057039;28;20547;-72
2022/10/05 00:16:19;;;;;;;0.60;0.60;;;6.60;99.90;;;;;;5073205;28;20178;-72
2022/10/05 00:18:50;;;;;;;0.60;0.60;;;6.40;99.90;;;;;;5072815;28;20206;-72
2022/10/05 00:21:23;;;;;;;0.60;0.60;;;6.40;99.90;;;;;;5072390;28;20198;-72
2022/10/05 00:23:49;;;;;;;0.70;0.70;;;6.50;99.90;;;;;;5073044;28;20178;-72
2022/10/05 00:26:23;;;;;;;0.70;0.70;;;6.50;99.90;;;;;;5073023;28;20252;-72
2022/10/05 00:28:48;;;;;;;0.70;0.70;;;6.50;99.90;;;;;;5072454;28;20685;-72
2022/10/05 00:31:19;;;;;;;0.70;0.70;;;6.60;99.90;;;;;;5072214;28;20210;-72
2022/10/05 00:33:45;;;;;;;0.70;0.70;;;6.60;99.90;;;;;;5072824;28;20312;-72
2022/10/05 00:36:11;;;;;;;0.70;0.70;;;6.60;99.90;;;;;;5072863;28;20171;-72
2022/10/05 00:38:37;;;;;;;0.60;0.60;;;6.50;99.90;;;;;;5072539;28;20178;-72
2022/10/05 00:41:31;;;;;;;0.70;0.70;;;6.60;99.90;;;;;;5071690;28;20282;-71
2022/10/05 00:44:37;;;;;;;0.70;0.70;;;6.60;99.90;;;;;;5072706;28;20174;-72
2022/10/05 00:47:22;;;;;;;0.70;0.70;;;6.60;99.90;;;;;;5072266;28;20182;-72
2022/10/05 00:50:22;;;;;;;0.60;0.60;;;6.50;99.90;;;;;;5071697;28;20289;-71
2022/10/05 00:53:15;;;;;;;0.60;0.60;;;6.40;99.90;;;;;;5072440;28;20216;-72
2022/10/05 00:56:00;;;;;;;0.77;0.77;;;6.30;99.90;;;;;;5072418;28;20186;-72
2022/10/05 00:58:41;;;;;;;0.67;0.67;;;6.40;99.90;;;;;;5072402;28;20189;-73
2022/10/05 01:01:33;;;;;;;0.70;0.70;;;6.40;99.90;;;;;;5071338;28;20194;-73
2022/10/05 01:04:34;;;;;;;0.70;0.70;;;6.20;99.90;;;;;;5071905;28;20597;-72
2022/10/05 01:07:20;;;;;;;0.67;0.67;;;6.30;99.90;;;;;;5071362;28;20634;-73
2022/10/05 01:10:08;;;;;;;0.70;0.70;;;6.20;99.90;;;;;;5071015;28;20232;-73
2022/10/05 01:12:57;;;;;;;0.60;0.60;;;6.20;99.90;;;;;;5071098;28;20209;-72
2022/10/05 01:15:30;;;;;;;0.60;0.60;;;6.20;99.90;;;;;;5072074;28;20214;-73
2022/10/05 01:18:11;;;;;;;0.73;0.73;;;6.30;99.90;;;;;;5071667;28;20592;-72
2022/10/05 01:20:51;;;;;;;0.67;0.67;;;6.30;99.90;;;;;;5070585;28;20190;-73
2022/10/05 01:23:54;;;;;;;0.70;0.70;;;6.30;99.90;;;;;;5071809;28;20178;-73
2022/10/05 01:26:26;;;;;;;0.70;0.70;;;6.20;99.90;;;;;;5071484;28;20744;-73
2022/10/05 01:29:02;;;;;;;0.60;0.60;;;6.10;99.90;;;;;;5071662;28;20251;-73
2022/10/05 01:31:34;;;;;;;0.67;0.67;;;6.10;99.90;;;;;;5070922;28;20554;-73
2022/10/05 01:34:27;;;;;;;0.70;0.70;;;6.10;99.90;;;;;;5071682;28;20202;-73
2022/10/05 01:37:25;;;;;;;0.70;0.70;;;6.10;99.90;;;;;;5068580;28;20202;-73
2022/10/05 01:40:34;;;;;;;0.60;0.60;;;6.00;99.90;;;;;;5070764;28;20213;-72
2022/10/05 01:43:21;;;;;;;0.70;0.70;;;5.90;99.90;;;;;;5061258;28;20260;-73
2022/10/05 01:46:25;;;;;;;0.70;0.70;;;5.90;99.90;;;;;;5072021;28;20182;-73
2022/10/05 01:48:59;;;;;;;0.60;0.60;;;5.90;99.90;;;;;;5055129;28;20178;-72
2022/10/05 01:51:49;;;;;;;0.70;0.70;;;5.90;99.90;;;;;;5071309;28;20212;-72
2022/10/05 01:54:43;;;;;;;0.70;0.70;;;5.90;99.90;;;;;;5071452;28;20201;-72
2022/10/05 01:57:52;;;;;;;0.70;0.70;;;5.90;99.90;;;;;;5071436;28;20189;-73
2022/10/05 02:00:19;;;;;;;0.70;0.70;;;5.80;99.90;;;;;;5056028;28;20205;-72
2022/10/05 02:02:46;;;;;;;0.70;0.70;;;5.70;99.90;;;;;;5070811;28;20181;-72
2022/10/05 02:05:21;;;;;;;0.70;0.70;;;5.70;99.90;;;;;;5071407;28;20174;-72
2022/10/05 02:08:13;;;;;;;0.70;0.70;;;5.70;99.90;;;;;;5071218;28;20186;-72
2022/10/05 02:10:54;;;;;;;0.70;0.70;;;5.70;99.90;;;;;;5070171;28;20206;-72
2022/10/05 02:13:26;;;;;;;0.60;0.60;;;5.70;99.90;;;;;;5071481;28;20198;-73
2022/10/05 02:15:58;;;;;;;0.70;0.70;;;5.60;99.90;;;;;;5071335;28;20605;-72
2022/10/05 02:18:31;;;;;;;0.70;0.70;;;5.60;99.90;;;;;;5071055;28;20189;-72
2022/10/05 02:20:58;;;;;;;0.70;0.70;;;5.60;99.90;;;;;;5070422;28;20202;-73
2022/10/05 02:23:29;;;;;;;0.70;0.70;;;5.50;99.90;;;;;;5071065;28;20248;-74
2022/10/05 02:25:57;;;;;;;0.70;0.70;;;5.50;99.90;;;;;;5074183;28;20178;-73
2022/10/05 02:28:38;;;;;;;0.73;0.73;;;5.50;99.90;;;;;;5075178;28;20198;-73
2022/10/05 02:31:09;;;;;;;0.73;0.73;;;5.40;99.90;;;;;;5073440;28;20205;-72
2022/10/05 02:33:35;;;;;;;0.80;0.80;;;5.40;99.90;;;;;;5074549;28;20178;-72
2022/10/05 02:36:32;;;;;;;0.60;0.60;;;5.30;99.90;;;;;;5074662;28;20182;-72
2022/10/05 02:39:15;;;;;;;0.80;0.80;;;5.40;99.90;;;;;;5074288;28;20244;-72
2022/10/05 02:42:27;;;;;;;0.63;0.63;;;5.40;99.90;;;;;;5074161;28;20701;-72
2022/10/05 02:45:08;;;;;;;0.70;0.70;;;5.40;99.90;;;;;;5032053;28;20184;-73
2022/10/05 02:47:52;;;;;;;0.60;0.60;;;5.40;99.90;;;;;;5032349;28;20206;-73
2022/10/05 02:50:51;;;;;;;0.70;0.70;;;5.40;99.90;;;;;;5060781;28;20214;-72
2022/10/05 02:53:26;;;;;;;0.70;0.70;;;5.40;99.90;;;;;;5074331;28;20309;-72
2022/10/05 02:56:32;;;;;;;0.70;0.70;;;5.30;99.90;;;;;;5074462;28;20273;-72
2022/10/05 02:59:13;;;;;;;0.70;0.70;;;5.30;99.90;;;;;;5073867;28;20182;-72
2022/10/05 03:01:49;;;;;;;0.70;0.70;;;5.30;99.90;;;;;;5074098;28;20210;-72
2022/10/05 03:04:27;;;;;;;0.70;0.70;;;5.20;99.90;;;;;;5074355;28;20182;-72
2022/10/05 03:07:01;;;;;;;0.70;0.70;;;5.30;99.90;;;;;;5074205;28;20211;-72
2022/10/05 03:09:36;;;;;;;0.60;0.60;;;5.30;99.90;;;;;;5100761;22;20218;-79
2022/10/05 03:12:27;;;;;;;0.80;0.80;;;5.30;99.90;;;;;;5086774;28;20213;-79
2022/10/05 03:15:11;;;;;;;0.70;0.70;;;5.40;99.90;;;;;;5086656;28;20289;-80
2022/10/05 03:17:53;;;;;;;0.60;0.60;;;5.40;99.90;;;;;;5063837;28;20179;-80
2022/10/05 03:20:40;;;;;;;0.80;0.80;;;5.30;99.90;;;;;;5079431;28;20202;-79
2022/10/05 03:23:12;;;;;;;0.60;0.60;;;5.20;99.90;;;;;;5083356;28;20228;-78
2022/10/05 03:25:59;;;;;;;0.70;0.70;;;5.20;99.90;;;;;;5075723;28;20187;-79
2022/10/05 03:28:58;;;;;;;0.60;0.60;;;5.20;99.90;;;;;;5059378;28;20193;-79
2022/10/05 03:31:30;;;;;;;0.70;0.70;;;5.30;99.90;;;;;;5058407;28;20214;-79
2022/10/05 03:33:58;;;;;;;0.67;0.67;;;5.20;99.90;;;;;;5060895;28;20703;-79
2022/10/05 03:36:48;;;;;;;0.70;0.70;;;5.20;99.90;;;;;;5070159;28;20170;-78
2022/10/05 03:39:24;;;;;;;0.70;0.70;;;5.20;99.90;;;;;;5077624;28;20198;-79
2022/10/05 03:42:09;;;;;;;0.70;0.70;;;5.20;99.90;;;;;;5061127;28;20210;-79
2022/10/05 03:45:04;;;;;;;0.70;0.70;;;5.20;99.90;;;;;;5059090;28;20179;-79
2022/10/05 03:47:32;;;;;;;0.80;0.80;;;5.10;99.90;;;;;;5040002;28;20199;-79
2022/10/05 03:50:19;;;;;;;0.77;0.77;;;5.00;99.90;;;;;;5071582;28;20262;-78
2022/10/05 03:52:49;;;;;;;0.73;0.73;;;5.10;99.90;;;;;;5076704;28;20381;-78
2022/10/05 03:55:37;;;;;;;0.70;0.70;;;5.10;99.90;;;;;;5051626;28;20246;-78
2022/10/05 03:58:12;;;;;;;0.60;0.60;;;5.10;99.90;;;;;;5041868;28;20596;-78
2022/10/05 04:00:42;;;;;;;0.67;0.67;;;5.10;99.90;;;;;;5055249;28;20222;-78
2022/10/05 04:03:21;;;;;;;0.70;0.70;;;5.10;99.90;;;;;;5055638;28;20389;-79
2022/10/05 04:06:00;;;;;;;0.80;0.80;;;5.20;99.90;;;;;;5048360;28;20517;-79
2022/10/05 04:08:41;;;;;;;0.67;0.67;;;5.30;99.90;;;;;;5079464;28;20194;-79
2022/10/05 04:11:20;;;;;;;0.70;0.70;;;5.40;99.90;;;;;;5059668;28;20254;-78
2022/10/05 04:13:56;;;;;;;0.70;0.70;;;5.40;99.90;;;;;;5058512;28;20175;-79
2022/10/05 04:16:29;;;;;;;0.70;0.70;;;5.30;99.90;;;;;;5065322;28;20185;-78
2022/10/05 04:19:01;;;;;;;0.80;0.80;;;5.30;99.90;;;;;;5074795;28;20198;-79
2022/10/05 04:21:34;;;;;;;0.70;0.70;;;5.20;99.90;;;;;;5056557;28;20195;-79
2022/10/05 04:24:19;;;;;;;0.70;0.70;;;5.80;99.90;;;;;;5056837;28;20211;-79
2022/10/05 04:26:53;;;;;;;0.70;0.70;;;5.00;99.90;;;;;;5055939;28;20186;-78
2022/10/05 04:29:37;;;;;;;0.70;0.70;;;5.00;99.90;;;;;;5060696;28;20178;-79
2022/10/05 04:32:14;;;;;;;0.70;0.70;;;5.00;99.90;;;;;;5075181;28;20199;-78
2022/10/05 04:35:17;;;;;;;0.70;0.70;;;5.10;99.90;;;;;;5076782;28;20197;-79
2022/10/05 04:38:13;;;;;;;0.80;0.80;;;5.10;99.90;;;;;;5060077;28;20224;-79
2022/10/05 04:40:50;;;;;;;0.70;0.70;;;5.10;99.90;;;;;;5057244;28;20282;-78
2022/10/05 04:43:34;;;;;;;0.70;0.70;;;5.00;99.90;;;;;;5064464;28;20261;-79
2022/10/05 04:46:17;;;;;;;0.70;0.70;;;4.90;99.90;;;;;;5067965;28;20179;-79
2022/10/05 04:48:55;;;;;;;0.70;0.70;;;4.90;99.90;;;;;;5056588;28;20784;-79
2022/10/05 04:51:53;;;;;;;0.80;0.80;;;4.80;99.90;;;;;;5071470;28;20229;-80
2022/10/05 04:54:39;;;;;;;0.70;0.70;;;4.70;99.90;;;;;;5051726;28;20505;-79
2022/10/05 04:57:12;;;;;;;0.97;0.97;;;4.70;99.90;;;;;;5052847;28;20175;-79
2022/10/05 04:59:48;;;;;;;0.83;0.83;;;4.70;99.90;;;;;;5073037;28;20181;-80
2022/10/05 05:03:01;;;;;;;0.73;0.73;;;4.70;99.90;;;;;;5058277;28;20182;-79
2022/10/05 05:05:39;;;;;;;0.70;0.70;;;4.70;99.90;;;;;;5048546;28;20739;-79
2022/10/05 05:08:37;;;;;;;0.73;0.73;;;4.60;99.90;;;;;;5065288;28;20194;-79
2022/10/05 05:11:06;;;;;;;0.73;0.73;;;4.60;99.90;;;;;;5057386;28;20202;-79
2022/10/05 05:13:41;;;;;;;0.70;0.70;;;4.60;99.90;;;;;;5074922;28;20261;-78
2022/10/05 05:16:30;;;;;;;0.60;0.60;;;4.60;99.90;;;;;;5073906;28;20181;-79
2022/10/05 05:19:18;;;;;;;0.67;0.67;;;4.60;99.90;;;;;;5074952;28;20171;-80
2022/10/05 05:21:52;;;;;;;0.70;0.70;;;4.50;99.90;;;;;;5073728;28;20194;-80
2022/10/05 05:24:35;;;;;;;0.60;0.60;;;4.50;99.90;;;;;;5074067;28;20646;-79
2022/10/05 05:27:21;;;;;;;0.70;0.70;;;4.40;99.90;;;;;;5080514;28;20216;-77
2022/10/05 05:30:17;;;;;;;0.80;0.80;;;4.40;99.90;;;;;;5057810;28;20408;-77
2022/10/05 05:33:01;;;;;;;0.77;0.77;;;4.50;99.90;;;;;;5078506;28;20301;-78
2022/10/05 05:35:57;;;;;;;0.70;0.70;;;4.50;99.90;;;;;;5078933;28;20189;-78
2022/10/05 05:38:44;;;;;;;0.77;0.77;;;4.40;99.90;;;;;;5079724;28;20284;-78
2022/10/05 05:41:16;;;;;;;0.70;0.70;;;4.50;99.90;;;;;;5078812;28;20217;-77
2022/10/05 05:44:00;;;;;;;0.70;0.70;;;4.50;99.90;;;;;;5054999;28;20221;-77
2022/10/05 05:46:38;;;;;;;0.60;0.60;;;4.50;99.90;;;;;;5056206;28;20178;-77
2022/10/05 05:49:16;;;;;;;0.90;0.90;;;4.70;99.90;;;;;;5054665;28;20190;-76
2022/10/05 05:51:49;;;;;;;0.80;0.80;;;4.80;99.90;;;;;;5050913;28;20211;-76
2022/10/05 05:54:14;;;;;;;0.80;0.80;;;4.90;99.90;;;;;;5053238;28;20506;-78
2022/10/05 05:56:48;;;;;;;0.70;0.70;;;4.80;99.90;;;;;;5050013;28;20183;-77
2022/10/05 05:59:24;;;;;;;0.80;0.80;;;5.00;99.90;;;;;;5052576;28;20560;-77
2022/10/05 06:02:04;;;;;;;0.60;0.60;;;5.00;99.90;;;;;;5055234;28;20214;-78
2022/10/05 06:04:45;;;;;;;0.73;0.73;;;5.10;99.90;;;;;;5056127;28;20175;-78
2022/10/05 06:07:23;;;;;;;0.70;0.70;;;5.10;99.90;;;;;;5056561;28;20207;-78
2022/10/05 06:09:52;;;;;;;0.70;0.70;;;5.40;99.90;;;;;;5060975;28;20640;-79
2022/10/05 06:12:24;;;;;;;0.70;0.70;;;5.40;99.90;;;;;;5063192;28;20578;-79
2022/10/05 06:14:56;;;;;;;0.70;0.70;;;5.60;99.90;;;;;;5061779;28;20199;-79
2022/10/05 06:17:44;;;;;;;0.70;0.70;;;6.10;99.90;;;;;;5061936;28;20427;-79
2022/10/05 06:20:26;;;;;;;0.70;0.70;;;6.40;99.90;;;;;;5060403;28;20198;-78
2022/10/05 06:22:56;;;;;;;0.77;0.77;;;6.80;99.90;;;;;;5059391;28;20211;-79
2022/10/05 06:25:41;;;;;;;0.60;0.60;;;7.10;99.90;;;;;;5061972;28;20168;-79
2022/10/05 06:28:12;;;;;;;0.70;0.70;;;7.30;99.90;;;;;;5062009;28;20171;-79
2022/10/05 06:31:14;;;;;;;0.70;0.70;;;7.80;99.90;;;;;;5059243;28;20248;-78
2022/10/05 06:33:49;;;;;;;0.60;0.60;;;8.20;99.90;;;;;;5057012;28;20240;-77
2022/10/05 06:36:56;;;;;;;0.70;0.70;;;8.20;99.90;;;;;;5057149;28;20743;-77
2022/10/05 06:39:54;;;;;;;0.60;0.60;;;9.40;60.00;;;;;;5058652;28;20189;-77
2022/10/05 06:42:55;;;;;;;0.70;0.70;;;10.80;1.00;;;;;;5062683;28;20206;-79
2022/10/05 06:45:44;;;;;;;0.40;0.40;;;11.30;99.90;;;;;;5064796;28;20240;-78
2022/10/05 06:48:27;;;;;;;0.50;0.50;;;12.00;1.00;;;;;;5064635;28;20175;-78
2022/10/05 06:51:01;;;;;;;0.40;0.40;;;12.40;1.00;;;;;;5063129;28;20187;-78
2022/10/05 06:53:44;;;;;;;0.40;0.40;;;12.40;1.00;;;;;;5062366;28;20214;-78
2022/10/05 06:56:22;;;;;;;0.40;0.40;;;11.90;1.00;;;;;;5060156;28;20183;-78
2022/10/05 06:59:21;;;;;;;0.40;0.40;;;11.80;99.90;;;;;;5059831;28;20617;-78
2022/10/05 07:01:57;;;;;;;0.40;0.40;;;12.10;99.90;;;;;;5060375;28;20675;-78
2022/10/05 07:04:53;;;;;;;0.43;0.43;;;12.40;99.90;;;;;;5061030;28;20174;-79
2022/10/05 07:07:42;;;;;;;0.30;0.30;;;13.30;1.00;;;;;;5061371;28;20179;-78
2022/10/05 07:10:29;;;;;;;0.40;0.40;;;13.40;1.00;;;;;;5059599;28;20225;-78
2022/10/05 07:13:44;;;;;;;0.30;0.30;;;13.60;99.90;;;;;;5058148;28;20221;-78
2022/10/05 07:16:32;;;;;;;0.33;0.33;;;13.50;1.00;;;;;;5030207;28;20550;-78
2022/10/05 07:19:17;;;;;;;0.30;0.30;;;13.90;1.00;;;;;;5059184;28;20183;-77
2022/10/05 07:22:06;;;;;;;0.40;0.40;;;14.50;1.00;;;;;;5058727;28;20199;-78
2022/10/05 07:24:36;;;;;;;0.40;0.40;;;14.50;1.00;;;;;;5058303;28;20171;-77
2022/10/05 07:27:16;;;;;;;0.40;0.40;;;14.90;1.00;;;;;;5058023;28;20638;-78
2022/10/05 07:30:00;;;;;;;0.40;0.40;;;15.20;1.00;;;;;;5056612;28;20238;-78
2022/10/05 07:32:55;;;;;;;0.33;0.33;;;15.00;1.00;;;;;;5056146;28;20214;-78
2022/10/05 07:38:30;;;;;;;0.50;0.50;;;15.50;1.00;;;;;;5057844;28;20673;-77
2022/10/05 07:41:24;;;;;;;0.30;0.30;;;15.90;99.90;;;;;;5056066;28;20211;-78
2022/10/05 07:44:11;;;;;;;0.37;0.37;;;16.00;99.90;;;;;;5056092;28;20274;-77
2022/10/05 07:46:52;;;;;;;0.40;0.40;;;15.70;1.00;;;;;;5056066;28;20675;-78
2022/10/05 07:49:36;;;;;;;0.40;0.40;;;16.50;99.90;;;;;;5055778;28;20598;-79
2022/10/05 07:52:10;;;;;;;0.33;0.33;;;16.50;99.90;;;;;;5055913;28;20207;-77
2022/10/05 07:54:52;;;;;;;0.40;0.40;;;16.60;99.90;;;;;;5056436;28;20185;-78
2022/10/05 07:57:30;;;;;;;0.50;0.50;;;16.60;99.90;;;;;;5057393;28;20186;-77
2022/10/05 08:00:13;;;;;;;0.40;0.40;;;16.60;99.90;;;;;;5053772;28;20668;-78
2022/10/05 08:02:52;;;;;;;0.50;0.50;;;16.30;99.90;;;;;;5057701;28;20187;-77
2022/10/05 08:05:40;;;;;;;0.60;0.60;;;16.50;99.90;;;;;;5056794;28;20241;-78
2022/10/05 08:08:16;;;;;;;0.30;0.30;;;16.10;1.00;;;;;;5057203;28;20187;-78
2022/10/05 08:10:45;;;;;;;0.50;0.50;;;16.30;1.00;;;;;;5056667;28;20221;-78
2022/10/05 08:13:35;;;;;;;0.40;0.40;;;16.00;10.10;;;;;;5056861;28;20226;-78
2022/10/05 08:16:05;;;;;;;0.50;0.50;;;16.30;1.00;;;;;;5061739;28;20175;-77
2022/10/05 08:18:55;;;;;;;0.50;0.50;;;16.50;1.00;;;;;;5061886;28;20175;-77
2022/10/05 08:21:30;;;;;;;0.40;0.40;;;17.10;99.90;;;;;;5062389;28;20328;-77
2022/10/05 08:24:10;;;;;;;0.40;0.40;;;17.10;1.00;;;;;;5060920;28;20312;-80
2022/10/05 08:26:58;;;;;;;0.30;0.30;;;17.60;99.90;;;;;;5056149;28;20199;-79
2022/10/05 08:29:52;;;;;;;0.47;0.47;;;18.00;98.70;;;;;;5054987;28;20179;-79
2022/10/05 08:32:23;;;;;;;0.50;0.50;;;18.10;73.80;;;;;;5056347;28;20202;-80
2022/10/05 08:35:02;;;;;;;0.50;0.50;;;18.70;1.00;;;;;;5057079;28;20190;-80
2022/10/05 08:37:32;;;;;;;0.50;0.50;;;19.20;1.00;;;;;;5056565;28;20183;-78
2022/10/05 08:40:01;;;;;;;0.50;0.50;;;19.00;1.00;;;;;;5058738;28;20187;-79
2022/10/05 08:43:05;;;;;;;0.50;0.50;;;19.60;1.00;;;;;;5060748;28;20232;-79
2022/10/05 08:45:49;;;;;;;0.50;0.50;;;19.50;1.00;;;;;;5062467;28;20190;-79
2022/10/05 08:48:18;;;;;;;0.60;0.60;;;19.90;1.00;;;;;;5062028;28;20190;-79
2022/10/05 08:51:08;;;;;;;0.60;0.60;;;20.10;1.00;;;;;;5060616;28;20655;-79
2022/10/05 08:53:36;;;;;;;0.70;0.70;;;20.40;1.00;;;;;;5059353;28;20204;-78
2022/10/05 08:56:28;;;;;;;0.60;0.60;;;20.50;1.00;;;;;;5064041;28;20193;-80
2022/10/05 08:59:56;;;;;;;0.60;0.60;;;21.00;1.00;;;;;;5064058;28;20237;-80
2022/10/05 09:02:45;;;;;;;0.70;0.70;;;21.10;1.00;;;;;;5022677;28;20180;-80
2022/10/05 09:05:33;;;;;;;0.50;0.50;;;21.00;1.00;;;;;;5020801;28;20185;-80
2022/10/05 09:08:29;;;;;;;0.50;0.50;;;21.00;1.00;;;;;;5058711;28;20199;-79
2022/10/05 09:11:31;;;;;;;0.57;0.57;;;21.30;1.00;;;;;;5059599;28;20198;-79
2022/10/05 09:14:31;;;;;;;0.40;0.40;;;21.20;1.00;;;;;;5055232;28;20194;-80
2022/10/05 09:17:27;;;;;;;0.60;0.60;;;21.70;1.00;;;;;;5057396;28;20202;-79
2022/10/05 09:19:52;;;;;;;0.70;0.70;;;21.70;1.00;;;;;;5059029;28;20199;-79
2022/10/05 09:22:37;;;;;;;0.63;0.63;;;21.90;1.00;;;;;;5057320;28;20190;-79
2022/10/05 09:25:45;;;;;;;0.60;0.60;;;22.40;1.00;;;;;;5055639;28;20175;-79
2022/10/05 09:28:24;;;;;;;0.43;0.43;;;22.00;1.00;;;;;;5037720;28;20187;-80
2022/10/05 09:31:25;;;;;;;0.40;0.40;;;22.20;1.00;;;;;;5057025;28;20267;-80
2022/10/05 09:34:02;;;;;;;0.63;0.63;;;22.40;1.00;;;;;;5057208;28;20191;-79
2022/10/05 09:36:49;;;;;;;0.60;0.60;;;22.70;1.00;;;;;;5056645;28;20611;-79
2022/10/05 09:39:36;;;;;;;0.63;0.63;;;22.40;1.00;;;;;;5057054;28;20210;-79
2022/10/05 09:42:26;;;;;;;0.47;0.47;;;22.40;1.00;;;;;;5059188;28;20179;-80
2022/10/05 09:45:07;;;;;;;0.60;0.60;;;22.70;1.00;;;;;;5052612;28;20233;-80
2022/10/05 09:47:43;;;;;;;0.60;0.60;;;23.00;1.00;;;;;;5051629;28;20182;-80
2022/10/05 09:50:38;;;;;;;0.70;0.70;;;23.40;1.00;;;;;;5058943;28;20324;-80
2022/10/05 09:53:07;;;;;;;0.70;0.70;;;22.80;1.00;;;;;;5058833;28;20645;-80
2022/10/05 09:56:08;;;;;;;0.53;0.53;;;22.70;1.00;;;;;;5057219;28;20179;-77
2022/10/05 09:58:52;;;;;;;0.50;0.50;;;23.00;1.00;;;;;;5060901;28;20241;-77
2022/10/05 10:01:50;;;;;;;0.60;0.60;;;23.50;1.00;;;;;;5057175;28;20315;-77
2022/10/05 10:05:04;;;;;;;0.60;0.60;;;24.00;1.00;;;;;;5046610;28;20262;-77
2022/10/05 10:08:11;;;;;;;0.60;0.60;;;23.80;1.00;;;;;;5060550;28;20198;-78
2022/10/05 10:10:54;;;;;;;0.53;0.53;;;24.10;1.00;;;;;;5059047;28;20339;-79
2022/10/05 10:13:52;;;;;;;0.50;0.50;;;24.10;1.00;;;;;;5056048;28;20206;-84
2022/10/05 10:16:25;;;;;;;0.50;0.50;;;23.90;1.00;;;;;;5063986;28;20187;-76
2022/10/05 10:19:22;;;;;;;0.60;0.60;;;23.80;1.00;;;;;;5061666;28;20186;-77
2022/10/05 10:22:22;;;;;;;0.70;0.70;;;23.50;1.00;;;;;;5058514;28;20257;-78
2022/10/05 10:25:17;;;;;;;0.60;0.60;;;23.70;1.00;;;;;;5061191;28;20187;-77
2022/10/05 10:27:43;;;;;;;0.60;0.60;;;24.00;1.00;;;;;;5059393;28;20210;-83
2022/10/05 10:30:39;;;;;;;0.70;0.70;;;24.20;1.00;;;;;;5075854;28;20203;-82
2022/10/05 10:33:20;;;;;;;0.60;0.60;;;24.60;1.00;;;;;;5055938;28;20318;-83
2022/10/05 10:36:02;;;;;;;0.67;0.67;;;24.90;1.00;;;;;;5048777;28;20190;-81
2022/10/05 10:38:48;;;;;;;0.60;0.60;;;25.50;1.00;;;;;;5056271;28;20175;-82
2022/10/05 10:41:20;;;;;;;0.60;0.60;;;25.20;1.00;;;;;;5053558;28;20252;-84
2022/10/05 10:44:24;;;;;;;0.50;0.50;;;25.40;1.00;;;;;;5052209;28;20187;-82
2022/10/05 10:47:26;;;;;;;0.60;0.60;;;25.80;1.00;;;;;;5058146;28;20239;-84
2022/10/05 10:50:03;;;;;;;0.70;0.70;;;26.10;1.00;;;;;;5048338;28;20559;-83
2022/10/05 10:52:54;;;;;;;0.50;0.50;;;26.50;1.00;;;;;;5043306;28;20226;-83
2022/10/05 10:55:32;;;;;;;0.50;0.50;;;26.20;1.00;;;;;;5058727;28;20175;-82
2022/10/05 10:58:07;;;;;;;0.60;0.60;;;25.80;1.00;;;;;;5060557;28;20174;-83
2022/10/05 11:01:00;;;;;;;0.53;0.53;;;25.90;1.00;;;;;;5074314;28;20198;-83
2022/10/05 11:04:02;;;;;;;0.60;0.60;;;26.50;1.00;;;;;;5060192;28;20550;-85
2022/10/05 11:06:55;;;;;;;0.70;0.70;;;26.80;1.00;;;;;;5057277;28;20171;-84
2022/10/05 11:09:29;;;;;;;0.60;0.60;;;27.00;1.00;;;;;;5038916;28;20245;-84
2022/10/05 11:12:28;;;;;;;0.60;0.60;;;26.70;1.00;;;;;;5038637;28;20204;-84
2022/10/05 11:15:03;;;;;;;0.67;0.67;;;26.80;1.00;;;;;;5043457;28;20182;-84
2022/10/05 11:17:58;;;;;;;0.60;0.60;;;26.50;1.00;;;;;;5038853;28;20232;-81
2022/10/05 11:20:54;;;;;;;0.60;0.60;;;26.70;1.00;;;;;;5038460;28;20259;-83
2022/10/05 11:23:51;;;;;;;0.70;0.70;;;27.30;1.00;;;;;;5038729;28;20199;-84
2022/10/05 11:26:28;;;;;;;0.60;0.60;;;27.30;1.00;;;;;;5039063;28;20667;-83
2022/10/05 11:29:38;;;;;;;0.50;0.50;;;27.80;1.00;;;;;;5040369;28;20242;-83
2022/10/05 11:32:21;;;;;;;0.70;0.70;;;27.00;1.00;;;;;;5033585;28;20289;-83
2022/10/05 11:35:06;;;;;;;0.57;0.57;;;26.90;1.00;;;;;;5058458;28;20658;-85
2022/10/05 11:38:06;;;;;;;0.60;0.60;;;26.80;1.00;;;;;;5059555;28;20258;-84
2022/10/05 11:41:09;;;;;;;0.60;0.60;;;26.70;1.00;;;;;;5059258;28;20274;-83
2022/10/05 11:44:12;;;;;;;0.60;0.60;;;27.30;1.00;;;;;;5059194;28;20257;-84
2022/10/05 11:47:15;;;;;;;0.67;0.67;;;27.60;1.00;;;;;;5058372;28;20182;-82
2022/10/05 11:49:47;;;;;;;0.60;0.60;;;27.40;1.00;;;;;;5057324;28;20179;-85
2022/10/05 11:52:31;;;;;;;0.60;0.60;;;27.90;1.00;;;;;;5059711;28;20571;-84
2022/10/05 11:55:13;;;;;;;0.60;0.60;;;28.10;1.00;;;;;;5057159;28;20175;-82
2022/10/05 11:57:52;;;;;;;0.60;0.60;;;27.90;1.00;;;;;;5056449;28;20190;-81
2022/10/05 12:00:21;;;;;;;0.60;0.60;;;27.10;1.00;;;;;;5055854;28;20206;-82
2022/10/05 12:03:10;;;;;;;0.40;0.40;;;27.40;1.00;;;;;;5076235;28;20228;-80
2022/10/05 12:06:04;;;;;;;0.50;0.50;;;27.70;1.00;;;;;;5079654;28;20258;-82
2022/10/05 12:08:45;;;;;;;0.53;0.53;;;28.10;1.00;;;;;;5078556;28;20224;-84
2022/10/05 12:11:29;;;;;;;0.60;0.60;;;28.30;1.00;;;;;;5078569;28;20190;-83
2022/10/05 12:14:01;;;;;;;0.67;0.67;;;28.30;1.00;;;;;;5080228;28;20194;-81
2022/10/05 12:16:45;;;;;;;0.67;0.67;;;28.10;1.00;;;;;;5080039;28;20638;-81
2022/10/05 12:19:26;;;;;;;0.50;0.50;;;28.80;1.00;;;;;;5079940;28;20182;-81
2022/10/05 12:22:02;;;;;;;0.50;0.50;;;29.40;1.00;;;;;;5075612;28;20175;-83
2022/10/05 12:24:34;;;;;;;0.60;0.60;;;28.30;1.00;;;;;;5063916;28;20170;-84
2022/10/05 12:27:17;;;;;;;0.50;0.50;;;28.60;1.00;;;;;;5069564;28;20206;-85
2022/10/05 12:29:55;;;;;;;0.60;0.60;;;28.50;1.00;;;;;;5055022;28;20183;-83
2022/10/05 12:32:32;;;;;;;0.60;0.60;;;28.20;1.00;;;;;;5076217;28;20267;-82
2022/10/05 12:35:10;;;;;;;0.60;0.60;;;28.30;1.00;;;;;;5070395;28;20179;-82
2022/10/05 12:38:16;;;;;;;0.60;0.60;;;28.30;1.00;;;;;;5075472;28;20174;-82
2022/10/05 12:40:56;;;;;;;0.40;0.40;;;28.20;1.00;;;;;;5079390;28;20190;-84
2022/10/05 12:43:27;;;;;;;0.50;0.50;;;27.40;1.00;;;;;;5077879;28;20170;-79
2022/10/05 12:46:02;;;;;;;0.60;0.60;;;27.20;1.00;;;;;;5078373;28;20178;-78
2022/10/05 12:48:35;;;;;;;0.50;0.50;;;27.50;1.00;;;;;;5057226;28;20311;-81
2022/10/05 12:51:22;;;;;;;0.50;0.50;;;27.00;1.00;;;;;;5057587;28;20199;-81
2022/10/05 12:54:15;;;;;;;0.30;0.30;;;27.30;1.00;;;;;;5060130;28;20213;-80
2022/10/05 12:56:56;;;;;;;0.30;0.30;;;27.80;1.00;;;;;;5070143;28;20167;-79
2022/10/05 12:59:48;;;;;;;0.40;0.40;;;27.30;1.00;;;;;;5071310;28;20175;-79
2022/10/05 13:02:31;;;;;;;0.40;0.40;;;26.80;1.00;;;;;;5070433;28;20206;-81
2022/10/05 13:05:14;;;;;;;0.30;0.30;;;26.70;1.00;;;;;;5075313;28;20174;-79
2022/10/05 13:07:51;;;;;;;0.40;0.40;;;26.60;1.00;;;;;;5072317;28;20254;-82
2022/10/05 13:10:32;;;;;;;0.40;0.40;;;26.60;1.00;;;;;;5069638;28;20209;-78
2022/10/05 13:13:05;;;;;;;0.40;0.40;;;27.20;1.00;;;;;;5070418;28;20286;-81
2022/10/05 13:15:39;;;;;;;0.40;0.40;;;26.70;1.00;;;;;;5068354;28;20305;-82
2022/10/05 13:18:24;;;;;;;0.40;0.40;;;26.80;1.00;;;;;;5068834;28;20174;-79
2022/10/05 13:21:03;;;;;;;0.40;0.40;;;27.10;1.00;;;;;;5063908;28;20199;-81
2022/10/05 13:23:49;;;;;;;0.40;0.40;;;27.10;1.00;;;;;;5060323;28;20171;-80
2022/10/05 13:26:25;;;;;;;0.40;0.40;;;26.60;1.00;;;;;;5059841;28;20194;-80
2022/10/05 13:28:58;;;;;;;0.43;0.43;;;26.30;1.00;;;;;;5060195;28;20243;-83
2022/10/05 13:31:31;;;;;;;0.33;0.33;;;26.50;1.00;;;;;;5060990;28;20215;-81
2022/10/05 13:34:00;;;;;;;0.40;0.40;;;26.50;1.00;;;;;;5063189;28;20617;-81
2022/10/05 13:36:52;;;;;;;0.37;0.37;;;26.40;1.00;;;;;;5057761;28;20222;-82
2022/10/05 13:39:41;;;;;;;0.50;0.50;;;25.90;1.00;;;;;;5045245;28;20226;-83
2022/10/05 13:42:49;;;;;;;0.40;0.40;;;25.60;1.00;;;;;;5063113;28;20262;-82
2022/10/05 13:45:22;;;;;;;0.50;0.50;;;25.60;1.00;;;;;;5054477;28;20187;-83
2022/10/05 13:48:13;;;;;;;0.40;0.40;;;25.50;1.00;;;;;;5058838;28;20174;-82
2022/10/05 13:51:02;;;;;;;0.50;0.50;;;25.50;1.00;;;;;;5060487;28;20198;-82
2022/10/05 13:53:43;;;;;;;0.53;0.53;;;25.40;1.00;;;;;;5054515;28;20219;-80
2022/10/05 13:56:14;;;;;;;0.40;0.40;;;25.10;1.00;;;;;;5058787;28;20659;-81
2022/10/05 13:58:56;;;;;;;0.47;0.47;;;25.00;1.00;;;;;;5058325;28;20179;-82
2022/10/05 14:01:40;;;;;;;0.40;0.40;;;24.80;1.00;;;;;;5055418;28;20198;-83
2022/10/05 14:04:16;;;;;;;0.40;0.40;;;24.80;1.00;;;;;;5036330;28;20176;-82
2022/10/05 14:06:42;;;;;;;0.40;0.40;;;24.80;1.00;;;;;;5037722;28;20207;-81
2022/10/05 14:09:26;;;;;;;0.50;0.50;;;24.70;1.00;;;;;;5052792;28;20186;-82
2022/10/05 14:12:04;;;;;;;0.50;0.50;;;24.30;1.00;;;;;;5053940;28;20649;-82
2022/10/05 14:14:49;;;;;;;0.50;0.50;;;24.50;1.00;;;;;;5058070;28;20175;-82
2022/10/05 14:17:30;;;;;;;0.50;0.50;;;24.10;1.00;;;;;;5055144;28;20186;-82
2022/10/05 14:20:01;;;;;;;0.40;0.40;;;23.80;1.00;;;;;;5055122;28;20202;-83
2022/10/05 14:22:28;;;;;;;0.40;0.40;;;23.70;1.00;;;;;;5058539;28;20179;-82